Valley, United Kingdom
Current Conditions -  °F | °C
As of 12:50 PM on Saturday 20 Dec 2014 (Local Time) from EGOV Reporting Station
Broken Clouds Broken Clouds  
Wind Chill: 41°   Ceiling: 2700
Heat Index: 48°   Visibility: 6mi
Dew Point: 41°   Wind: 20mph
Humidity: 76%   Direction: 270°W
Pressure: 30.33"   Gusts: NA
Location:  53.25°N, 4.53°W
Report Text: EGOV 201250Z AUTO 27017KT 9999 FEW018/// BKN027/// 09/05 Q1027
Loading
Personal Weather Stations






























Interactive Weather Map New forecast layout! Learn more

10-Day Weather Forecast

Advertisements
Track Severe Weather on mobile